createdAt,value
2023-07-31T00:00:45.624Z,100671.34
2023-07-31T00:04:57.305Z,100662.41
2023-07-31T00:09:08.999Z,100649.09
2023-07-31T00:13:20.884Z,100642.03
2023-07-31T00:17:32.579Z,100646.94
2023-07-31T00:21:45.457Z,100630.34
2023-07-31T00:25:57.226Z,100626.81
2023-07-31T00:30:09.085Z,100624.94
2023-07-31T00:34:20.832Z,100612.72
2023-07-31T00:38:32.554Z,100618.97
2023-07-31T00:42:44.978Z,100617.06
2023-07-31T00:46:57.345Z,100606.75
2023-07-31T00:51:09.431Z,100610.31
2023-07-31T00:55:22.987Z,100603.50
2023-07-31T00:59:34.980Z,100579.34
2023-07-31T01:03:48.761Z,100589.38
2023-07-31T01:08:03.394Z,100598.91
2023-07-31T01:12:17.697Z,100582.84
2023-07-31T01:16:29.764Z,100587.47
2023-07-31T01:20:43.617Z,100585.56
2023-07-31T01:25:13.572Z,100589.09
2023-07-31T01:29:50.342Z,100582.88
2023-07-31T01:34:03.067Z,100581.50
2023-07-31T01:38:15.560Z,100586.94
2023-07-31T01:42:27.280Z,100570.09
2023-07-31T01:46:39.384Z,100565.47
2023-07-31T01:50:51.440Z,100570.91
2023-07-31T01:55:03.195Z,100567.41
2023-07-31T01:59:15.260Z,100553.53
2023-07-31T02:03:27.138Z,100565.19
2023-07-31T02:07:38.865Z,100550.81
2023-07-31T02:11:50.692Z,100554.59
2023-07-31T02:16:02.494Z,100554.59
2023-07-31T02:20:14.302Z,100546.19
2023-07-31T02:24:26.275Z,100550.56
2023-07-31T02:28:38.506Z,100548.66
2023-07-31T02:32:50.250Z,100540.22
2023-07-31T02:37:01.942Z,100548.91
2023-07-31T02:41:13.641Z,100537.53
2023-07-31T02:45:25.376Z,100516.88
2023-07-31T02:49:37.178Z,100544.59
2023-07-31T02:53:49.206Z,100530.47
2023-07-31T02:58:00.924Z,100534.25
2023-07-31T03:02:14.328Z,100531.81
2023-07-31T03:06:27.369Z,100517.97
2023-07-31T03:10:39.098Z,100530.16
2023-07-31T03:14:50.878Z,100529.34
2023-07-31T03:19:02.630Z,100523.41
2023-07-31T03:23:14.422Z,100533.44
2023-07-31T03:27:26.094Z,100514.44
2023-07-31T03:31:37.802Z,100530.47
2023-07-31T03:35:49.547Z,100523.94
2023-07-31T03:40:01.341Z,100518.50
2023-07-31T03:44:12.960Z,100523.41
2023-07-31T03:48:24.683Z,100526.13
2023-07-31T03:52:36.442Z,100523.66
2023-07-31T03:56:48.105Z,100519.88
2023-07-31T04:01:00.049Z,100495.72
2023-07-31T04:05:12.106Z,100520.41
2023-07-31T04:09:23.860Z,100512.53
2023-07-31T04:13:35.515Z,100514.97
2023-07-31T04:17:47.188Z,100510.63
2023-07-31T04:21:59.038Z,100503.84
2023-07-31T04:26:10.661Z,100507.38
2023-07-31T04:30:22.313Z,100495.44
2023-07-31T04:34:33.972Z,100498.16
2023-07-31T04:38:45.715Z,100488.09
2023-07-31T04:42:57.515Z,100478.03
2023-07-31T04:47:09.225Z,100477.22
2023-07-31T04:51:22.273Z,100479.91
2023-07-31T04:55:33.993Z,100488.06
2023-07-31T04:59:46.135Z,100478.31
2023-07-31T05:03:58.545Z,100475.56
2023-07-31T05:08:10.357Z,100468.25
2023-07-31T05:12:22.095Z,100467.97
2023-07-31T05:16:33.897Z,100462.28
2023-07-31T05:20:45.667Z,100455.78
2023-07-31T05:24:57.435Z,100449.25
2023-07-31T05:29:09.132Z,100461.44
2023-07-31T05:33:20.898Z,100450.06
2023-07-31T05:37:32.651Z,100459.31
2023-07-31T05:41:44.337Z,100453.88
2023-07-31T05:45:56.054Z,100447.94
2023-07-31T05:50:08.037Z,100448.75
2023-07-31T05:54:19.798Z,100451.75
2023-07-31T05:58:31.550Z,100442.78
2023-07-31T06:02:43.269Z,100431.38
2023-07-31T06:06:55.169Z,100434.38
2023-07-31T06:11:07.276Z,100413.47
2023-07-31T06:15:21.885Z,100414.81
2023-07-31T06:19:33.615Z,100397.72
2023-07-31T06:23:45.323Z,100413.97
2023-07-31T06:27:57.046Z,100404.47
2023-07-31T06:32:09.093Z,100403.09
2023-07-31T06:36:20.847Z,100395.22
2023-07-31T06:40:32.585Z,100378.94
2023-07-31T06:44:44.304Z,100381.59
2023-07-31T06:48:56.250Z,100371.25
2023-07-31T06:53:07.980Z,100374.22
2023-07-31T06:57:19.700Z,100378.34
2023-07-31T07:01:31.466Z,100375.03
2023-07-31T07:05:43.240Z,100365.81
2023-07-31T07:09:55.011Z,100363.66
2023-07-31T07:14:06.750Z,100364.69
2023-07-31T07:18:18.889Z,100370.09
2023-07-31T07:22:31.549Z,100362.44
2023-07-31T07:26:43.272Z,100353.44
2023-07-31T07:30:56.574Z,100345.56
2023-07-31T07:35:08.627Z,100353.44
2023-07-31T07:39:20.278Z,100358.06
2023-07-31T07:43:31.965Z,100351.00
2023-07-31T07:47:43.808Z,100351.28
2023-07-31T07:51:55.509Z,100346.66
2023-07-31T07:56:07.263Z,100345.03
2023-07-31T08:00:19.448Z,100342.03
2023-07-31T08:04:32.218Z,100333.59
2023-07-31T08:08:43.899Z,100343.63
2023-07-31T08:12:55.532Z,100332.75
2023-07-31T08:17:07.506Z,100334.59
2023-07-31T08:21:19.398Z,100332.66
2023-07-31T08:25:31.190Z,100326.59
2023-07-31T08:29:42.927Z,100329.25
2023-07-31T08:33:54.705Z,100325.16
2023-07-31T08:38:06.501Z,100314.56
2023-07-31T08:42:18.256Z,100309.13
2023-07-31T08:46:30.972Z,100310.94
2023-07-31T08:50:43.449Z,100311.69
2023-07-31T08:54:55.198Z,100327.94
2023-07-31T08:59:07.557Z,100325.16
2023-07-31T09:03:19.977Z,100323.25
2023-07-31T09:07:34.234Z,100324.81
2023-07-31T09:11:46.113Z,100322.69
2023-07-31T09:15:57.795Z,100322.16
2023-07-31T09:20:21.622Z,100330.09
2023-07-31T09:24:35.965Z,100323.28
2023-07-31T09:28:47.712Z,100312.13
2023-07-31T09:33:07.226Z,100309.59
2023-07-31T09:37:20.109Z,100289.72
2023-07-31T09:41:32.462Z,100304.91
2023-07-31T09:45:45.635Z,100301.56
2023-07-31T09:49:57.458Z,100282.56
2023-07-31T09:54:13.540Z,100285.53
2023-07-31T09:58:29.196Z,100286.34
2023-07-31T10:02:41.233Z,100287.59
2023-07-31T10:06:54.875Z,100285.94
2023-07-31T10:11:10.792Z,100297.34
2023-07-31T10:15:23.115Z,100281.28
2023-07-31T10:19:36.162Z,100274.91
2023-07-31T10:23:50.282Z,100279.19
2023-07-31T10:28:02.325Z,100285.03
2023-07-31T10:32:15.530Z,100288.22
2023-07-31T10:36:28.164Z,100287.47
2023-07-31T10:40:40.428Z,100296.09
2023-07-31T10:44:57.648Z,100290.94
2023-07-31T10:49:09.399Z,100281.59
2023-07-31T10:53:26.734Z,100286.09
2023-07-31T10:57:38.443Z,100273.97
2023-07-31T11:02:03.741Z,100285.63
2023-07-31T11:06:18.565Z,100280.91
2023-07-31T11:10:31.006Z,100262.13
2023-07-31T11:14:42.656Z,100274.88
2023-07-31T11:18:57.044Z,100272.75
2023-07-31T11:23:11.466Z,100268.81
2023-07-31T11:27:23.179Z,100269.50
2023-07-31T11:31:40.433Z,100281.84
2023-07-31T11:35:52.133Z,100271.47
2023-07-31T11:40:04.694Z,100263.31
2023-07-31T11:48:57.784Z,100266.53
2023-07-31T11:53:10.581Z,100262.94
2023-07-31T12:06:59.124Z,100261.81
2023-07-31T12:11:21.323Z,100250.00
2023-07-31T12:21:05.205Z,100273.69
2023-07-31T12:25:27.450Z,100256.63
2023-07-31T12:30:10.320Z,100265.75
2023-07-31T12:34:25.489Z,100266.97
2023-07-31T12:38:47.926Z,100257.53
2023-07-31T12:43:25.840Z,100245.88
2023-07-31T12:47:43.345Z,100244.88
2023-07-31T12:56:38.986Z,100250.06
2023-07-31T13:05:32.844Z,100241.41
2023-07-31T13:10:03.275Z,100218.84
2023-07-31T13:14:27.883Z,100208.97
2023-07-31T13:18:41.841Z,100209.13
2023-07-31T13:27:28.906Z,100222.03
2023-07-31T13:31:40.668Z,100210.66
2023-07-31T13:35:52.514Z,100209.97
2023-07-31T13:40:06.140Z,100207.25
2023-07-31T13:44:18.105Z,100197.03
2023-07-31T13:48:29.756Z,100179.66
2023-07-31T13:52:41.513Z,100183.84
2023-07-31T13:56:54.142Z,100189.22
2023-07-31T14:01:05.997Z,100181.13
2023-07-31T14:05:17.778Z,100184.94
2023-07-31T14:09:29.668Z,100173.44
2023-07-31T14:13:41.607Z,100171.59
2023-07-31T14:17:53.512Z,100165.72
2023-07-31T14:22:11.546Z,100167.31
2023-07-31T14:26:23.862Z,100161.88
2023-07-31T14:30:35.700Z,100171.66
2023-07-31T14:34:47.438Z,100185.16
2023-07-31T14:38:59.181Z,100177.34
2023-07-31T14:43:10.872Z,100175.00
2023-07-31T14:47:22.627Z,100156.19
2023-07-31T14:51:34.550Z,100143.25
2023-07-31T14:55:46.266Z,100148.78
2023-07-31T14:59:57.943Z,100147.75
2023-07-31T15:04:09.677Z,100137.34
2023-07-31T15:08:21.532Z,100139.50
2023-07-31T15:12:33.373Z,100137.50
2023-07-31T15:16:49.070Z,100124.16
2023-07-31T15:21:00.719Z,100119.22
2023-07-31T15:25:12.513Z,100113.47
2023-07-31T15:29:24.216Z,100099.66
2023-07-31T15:33:37.677Z,100093.47
2023-07-31T15:37:50.943Z,100086.91
2023-07-31T15:42:02.715Z,100080.66
2023-07-31T15:46:14.647Z,100067.91
2023-07-31T15:50:26.397Z,100063.69
2023-07-31T15:54:38.084Z,100056.31
2023-07-31T15:58:51.556Z,100043.50
2023-07-31T16:03:03.523Z,100041.78
2023-07-31T16:07:15.369Z,100030.56
2023-07-31T16:11:28.364Z,100022.00
2023-07-31T16:15:40.082Z,100027.47
2023-07-31T16:19:51.842Z,100018.19
2023-07-31T16:24:03.680Z,100022.09
2023-07-31T16:28:17.166Z,100000.75
2023-07-31T16:32:29.209Z,99981.81
2023-07-31T16:36:41.384Z,99996.47
2023-07-31T16:40:53.369Z,99994.84
2023-07-31T16:45:05.566Z,99988.66
2023-07-31T16:49:17.219Z,99976.25
2023-07-31T16:53:28.889Z,99976.94
2023-07-31T16:57:40.626Z,99983.19
2023-07-31T17:01:52.391Z,99959.97
2023-07-31T17:06:04.090Z,99946.97
2023-07-31T17:10:15.810Z,99945.19
2023-07-31T17:14:27.531Z,99944.09
2023-07-31T17:18:39.247Z,99926.44
2023-07-31T17:22:50.938Z,99927.53
2023-07-31T17:27:02.662Z,99931.69
2023-07-31T17:31:14.438Z,99923.53
2023-07-31T17:35:26.175Z,99918.91
2023-07-31T17:39:37.938Z,99914.34
2023-07-31T17:43:49.658Z,99906.47
2023-07-31T17:48:01.635Z,99905.09
2023-07-31T17:52:13.562Z,99890.66
2023-07-31T17:56:25.349Z,99904.28
2023-07-31T18:00:37.189Z,99896.47
2023-07-31T18:04:48.992Z,99905.19
2023-07-31T18:09:02.189Z,99893.00
2023-07-31T18:13:15.250Z,99899.19
2023-07-31T18:17:27.051Z,99884.53
2023-07-31T18:21:39.267Z,99859.06
2023-07-31T18:25:51.189Z,99872.84
2023-07-31T18:30:03.344Z,99878.69
2023-07-31T18:34:15.015Z,99856.41
2023-07-31T18:38:26.696Z,99860.81
2023-07-31T18:42:38.358Z,99849.34
2023-07-31T18:46:50.073Z,99868.03
2023-07-31T18:51:02.012Z,99854.63
2023-07-31T18:55:13.729Z,99866.41
2023-07-31T18:59:25.405Z,99880.00
2023-07-31T19:03:38.380Z,99888.88
2023-07-31T19:07:50.102Z,99863.06
2023-07-31T19:12:02.156Z,99859.75
2023-07-31T19:16:14.012Z,99841.63
2023-07-31T19:20:25.879Z,99842.06
2023-07-31T19:24:37.767Z,99826.91
2023-07-31T19:28:50.862Z,99817.63
2023-07-31T19:33:02.569Z,99813.63
2023-07-31T19:37:19.160Z,99796.88
2023-07-31T19:41:54.209Z,99806.66
2023-07-31T19:51:56.960Z,99822.09
2023-07-31T20:07:02.249Z,99813.38
2023-07-31T20:11:44.471Z,99820.59
2023-07-31T20:16:19.868Z,99806.94
2023-07-31T20:20:57.067Z,99818.03
2023-07-31T20:25:10.094Z,99786.38
2023-07-31T20:29:21.879Z,99775.53
2023-07-31T20:33:33.606Z,99804.59
2023-07-31T20:37:45.884Z,99787.25
2023-07-31T20:41:57.659Z,99775.38
2023-07-31T20:46:09.400Z,99785.66
2023-07-31T20:50:21.151Z,99768.63
2023-07-31T20:54:32.854Z,99775.38
2023-07-31T20:58:44.580Z,99775.59
2023-07-31T21:02:56.574Z,99767.81
2023-07-31T21:07:11.043Z,99761.50
2023-07-31T21:11:22.713Z,99721.91
2023-07-31T21:15:34.462Z,99724.94
2023-07-31T21:19:46.789Z,99708.81
2023-07-31T21:23:59.701Z,99711.59
2023-07-31T21:28:14.287Z,99720.63
2023-07-31T21:32:26.792Z,99721.00
2023-07-31T21:36:38.618Z,99715.97
2023-07-31T21:40:50.543Z,99711.00
2023-07-31T21:45:02.265Z,99692.06
2023-07-31T21:49:14.115Z,99671.66
2023-07-31T21:53:25.906Z,99657.63
2023-07-31T21:57:37.708Z,99666.88
2023-07-31T22:01:49.425Z,99665.06
2023-07-31T22:06:01.132Z,99659.94
2023-07-31T22:10:12.786Z,99658.81
2023-07-31T22:14:24.561Z,99661.97
2023-07-31T22:18:36.205Z,99652.72
2023-07-31T22:22:47.923Z,99638.03
2023-07-31T22:26:59.569Z,99632.59
2023-07-31T22:31:11.276Z,99634.28
2023-07-31T22:35:23.024Z,99625.66
2023-07-31T22:39:36.559Z,99623.25
2023-07-31T22:43:48.310Z,99632.47
2023-07-31T22:48:00.233Z,99629.19
2023-07-31T22:52:12.047Z,99610.06
2023-07-31T22:56:23.765Z,99610.38
2023-07-31T23:00:35.601Z,99587.53
2023-07-31T23:04:47.472Z,99587.53
2023-07-31T23:08:59.208Z,99598.84
2023-07-31T23:13:10.889Z,99588.50
2023-07-31T23:17:22.765Z,99582.03
2023-07-31T23:21:34.477Z,99574.34
2023-07-31T23:25:49.752Z,99568.66
2023-07-31T23:30:01.479Z,99571.09
2023-07-31T23:34:13.208Z,99560.53
2023-07-31T23:38:24.998Z,99557.50
2023-07-31T23:42:36.670Z,99556.41
2023-07-31T23:46:48.361Z,99557.00
2023-07-31T23:51:00.669Z,99546.94
2023-07-31T23:55:12.764Z,99536.31
2023-07-31T23:59:24.523Z,99532.81
